Time;durP1;ratioP1;P1;durP2;ratioP2;P2;SDS_P1;SDS_P2;PMS_P1;PMS_P2;Temp;Humidity;BMP_temperature;BMP_pressure;BME280_temperature;BME280_humidity;BME280_pressure;Samples;Min_cycle;Max_cycle;Signal;HPM_P1;HPM_P2
2022/04/30 00:00:06;;;;;;;8.80;3.87;;;7.30;99.90;;;;;;4985207;28;20289;-80
2022/04/30 00:02:51;;;;;;;9.10;4.10;;;7.30;99.90;;;;;;4986828;28;20197;-80
2022/04/30 00:05:36;;;;;;;8.70;3.93;;;7.30;99.90;;;;;;4986575;28;20251;-79
2022/04/30 00:08:24;;;;;;;6.50;3.87;;;7.30;99.90;;;;;;4983811;28;20205;-79
2022/04/30 00:11:13;;;;;;;5.50;3.80;;;7.30;99.90;;;;;;4977071;28;20273;-80
2022/04/30 00:13:57;;;;;;;5.87;4.07;;;7.30;99.90;;;;;;4976676;28;20197;-79
2022/04/30 00:16:42;;;;;;;6.60;4.30;;;7.20;99.90;;;;;;4985459;28;20200;-80
2022/04/30 00:19:28;;;;;;;6.60;4.03;;;7.20;99.90;;;;;;4986740;28;20224;-81
2022/04/30 00:22:22;;;;;;;5.17;3.90;;;7.20;99.90;;;;;;4984336;28;20564;-80
2022/04/30 00:25:08;;;;;;;6.93;4.70;;;7.20;99.90;;;;;;4986686;28;20196;-82
2022/04/30 00:27:53;;;;;;;5.93;4.27;;;7.20;99.90;;;;;;4992175;28;20258;-80
2022/04/30 00:30:38;;;;;;;11.43;4.27;;;7.10;99.90;;;;;;4991068;28;20308;-80
2022/04/30 00:33:23;;;;;;;5.20;3.87;;;7.10;99.90;;;;;;4981728;28;20233;-79
2022/04/30 00:36:10;;;;;;;5.93;4.00;;;7.10;99.90;;;;;;4989823;28;20192;-80
2022/04/30 00:38:56;;;;;;;6.10;4.50;;;7.10;99.90;;;;;;4978811;28;20213;-79
2022/04/30 00:41:46;;;;;;;7.10;4.17;;;7.00;99.90;;;;;;4985685;28;20246;-81
2022/04/30 00:44:31;;;;;;;6.87;3.97;;;7.10;99.90;;;;;;4991293;28;20192;-81
2022/04/30 00:47:19;;;;;;;5.40;4.07;;;7.00;99.90;;;;;;4991195;28;20216;-80
2022/04/30 00:50:04;;;;;;;8.50;4.77;;;7.00;99.90;;;;;;4986878;28;20220;-80
2022/04/30 00:52:52;;;;;;;9.70;4.70;;;7.00;99.90;;;;;;4989476;28;20205;-79
2022/04/30 00:55:37;;;;;;;4.63;4.20;;;7.00;99.90;;;;;;4987168;28;20197;-80
2022/04/30 00:58:23;;;;;;;7.00;3.93;;;7.00;99.90;;;;;;4986960;28;20229;-79
2022/04/30 01:01:08;;;;;;;8.93;4.90;;;6.90;99.90;;;;;;4988806;28;20272;-79
2022/04/30 01:03:53;;;;;;;8.93;5.27;;;6.90;99.90;;;;;;4980166;28;20203;-79
2022/04/30 01:06:48;;;;;;;9.10;4.70;;;6.80;99.90;;;;;;4984263;28;20193;-80
2022/04/30 01:09:37;;;;;;;6.77;4.50;;;6.80;99.90;;;;;;4981348;28;20289;-81
2022/04/30 01:12:22;;;;;;;7.23;4.90;;;6.80;99.90;;;;;;4979087;28;20206;-79
2022/04/30 01:15:07;;;;;;;9.07;4.73;;;6.80;99.90;;;;;;4987942;28;20193;-80
2022/04/30 01:17:52;;;;;;;7.30;5.13;;;6.80;99.90;;;;;;4985034;28;20254;-80
2022/04/30 01:20:43;;;;;;;9.93;5.23;;;6.70;99.90;;;;;;4987393;28;20224;-80
2022/04/30 01:23:28;;;;;;;7.23;4.70;;;6.70;99.90;;;;;;4982179;28;20213;-79
2022/04/30 01:26:14;;;;;;;7.20;4.50;;;6.70;99.90;;;;;;4987337;28;20212;-81
2022/04/30 01:29:01;;;;;;;5.77;4.63;;;6.70;99.90;;;;;;4983031;28;20220;-79
2022/04/30 01:38:00;;;;;;;10.20;5.17;;;6.50;99.90;;;;;;5003258;28;20217;-80
2022/04/30 01:40:44;;;;;;;10.43;5.20;;;6.50;99.90;;;;;;4978039;28;20716;-79
2022/04/30 01:43:33;;;;;;;10.77;5.60;;;6.50;99.90;;;;;;4977852;28;20224;-80
2022/04/30 01:46:17;;;;;;;9.17;4.83;;;6.40;99.90;;;;;;4985607;28;20205;-80
2022/04/30 01:49:04;;;;;;;8.10;5.40;;;6.40;99.90;;;;;;4973181;28;20235;-80
2022/04/30 01:51:50;;;;;;;9.77;5.47;;;6.40;99.90;;;;;;4983004;28;20260;-79
2022/04/30 01:54:35;;;;;;;7.83;5.00;;;6.30;99.90;;;;;;4977583;28;20217;-79
2022/04/30 01:57:28;;;;;;;6.60;5.10;;;6.30;99.90;;;;;;4972122;28;20218;-78
2022/04/30 02:00:14;;;;;;;8.33;5.30;;;6.20;99.90;;;;;;4984324;28;20249;-79
2022/04/30 02:03:06;;;;;;;6.60;5.20;;;6.20;99.90;;;;;;4986822;28;20317;-82
2022/04/30 02:05:50;;;;;;;8.07;5.10;;;6.20;99.90;;;;;;4981611;28;20189;-79
2022/04/30 02:08:35;;;;;;;9.67;5.20;;;6.20;99.90;;;;;;4981672;28;20200;-80
2022/04/30 02:11:21;;;;;;;7.93;5.07;;;6.10;99.90;;;;;;4982432;28;20232;-80
2022/04/30 02:14:10;;;;;;;9.43;5.37;;;6.10;99.90;;;;;;4980897;28;20201;-80
2022/04/30 02:16:57;;;;;;;9.93;5.33;;;6.10;99.90;;;;;;4986330;28;20191;-80
2022/04/30 02:20:24;;;;;;;9.20;5.07;;;6.10;99.90;;;;;;4984795;28;20189;-79
2022/04/30 02:23:11;;;;;;;6.97;4.77;;;6.10;99.90;;;;;;4975516;28;20192;-80
2022/04/30 02:25:56;;;;;;;8.03;5.33;;;6.00;99.90;;;;;;4982463;28;20245;-79
2022/04/30 02:28:41;;;;;;;9.47;5.20;;;6.00;99.90;;;;;;4982516;28;20197;-80
2022/04/30 02:31:27;;;;;;;8.53;5.23;;;6.00;99.90;;;;;;4984265;28;20240;-79
2022/04/30 02:34:13;;;;;;;10.57;5.30;;;5.90;99.90;;;;;;4980441;28;20204;-80
2022/04/30 02:36:58;;;;;;;9.35;6.57;;;5.90;99.90;;;;;;4983464;28;20406;-80
2022/04/30 02:39:45;;;;;;;10.40;5.10;;;5.90;99.90;;;;;;4979424;28;20193;-79
2022/04/30 02:42:30;;;;;;;9.82;7.00;;;5.90;99.90;;;;;;4986232;28;20409;-80
2022/04/30 02:45:17;;;;;;;10.70;7.30;;;5.90;99.90;;;;;;4980216;28;20386;-79
2022/04/30 02:48:06;;;;;;;7.93;5.50;;;5.90;99.90;;;;;;4980840;28;20181;-81
2022/04/30 02:50:53;;;;;;;9.63;4.50;;;5.80;99.90;;;;;;4985558;28;20249;-79
2022/04/30 02:53:38;;;;;;;9.00;6.03;;;5.80;99.90;;;;;;4988635;28;20217;-79
2022/04/30 02:56:22;;;;;;;8.53;5.27;;;5.80;99.90;;;;;;4983589;28;20242;-79
2022/04/30 03:02:10;;;;;;;8.10;5.27;;;5.80;99.90;;;;;;4996488;28;20212;-79
2022/04/30 03:04:55;;;;;;;7.53;4.93;;;5.70;99.90;;;;;;4979101;28;20276;-79
2022/04/30 03:07:40;;;;;;;8.27;4.73;;;5.70;99.90;;;;;;4976134;28;20197;-79
2022/04/30 03:10:25;;;;;;;8.30;4.70;;;5.70;99.90;;;;;;4981803;28;20233;-79
2022/04/30 03:13:13;;;;;;;6.07;4.57;;;5.70;99.90;;;;;;4978619;28;20213;-79
2022/04/30 03:21:42;;;;;;;9.67;5.30;;;5.60;99.90;;;;;;4983336;28;20227;-79
2022/04/30 03:22:08;;;;;;;8.17;4.90;;;5.60;99.90;;;;;;4991881;28;20296;-79
2022/04/30 03:24:52;;;;;;;7.80;5.00;;;5.50;99.90;;;;;;4979156;28;20217;-80
2022/04/30 03:27:37;;;;;;;8.27;5.80;;;5.50;99.90;;;;;;4985252;28;20201;-79
2022/04/30 03:30:22;;;;;;;12.37;5.27;;;5.50;99.90;;;;;;4986906;28;20228;-79
2022/04/30 03:33:10;;;;;;;8.90;5.07;;;5.40;99.90;;;;;;4986088;28;20209;-80
2022/04/30 03:35:54;;;;;;;9.17;5.30;;;5.40;99.90;;;;;;4974480;28;20197;-79
2022/04/30 03:38:39;;;;;;;11.30;5.07;;;5.30;99.90;;;;;;4984127;28;20208;-80
2022/04/30 03:41:24;;;;;;;10.30;5.87;;;5.30;99.90;;;;;;4988290;28;20240;-79
2022/04/30 03:44:08;;;;;;;7.57;5.57;;;5.30;99.90;;;;;;4987594;28;20235;-80
2022/04/30 03:46:53;;;;;;;9.43;5.93;;;5.20;99.90;;;;;;4981157;28;20216;-81
2022/04/30 03:49:37;;;;;;;7.70;5.43;;;5.20;99.90;;;;;;4986419;28;20189;-79
2022/04/30 03:52:22;;;;;;;7.43;5.70;;;5.20;99.90;;;;;;4976998;28;20192;-81
2022/04/30 03:55:07;;;;;;;8.77;5.40;;;5.20;99.90;;;;;;4988311;28;20179;-79
2022/04/30 03:57:53;;;;;;;7.83;4.60;;;5.10;99.90;;;;;;4990545;28;20204;-78
2022/04/30 04:00:38;;;;;;;12.30;5.80;;;5.10;99.90;;;;;;4990079;28;20231;-79
2022/04/30 04:03:23;;;;;;;9.03;5.47;;;5.00;99.90;;;;;;4989845;28;20211;-80
2022/04/30 04:06:08;;;;;;;8.47;5.50;;;4.90;99.90;;;;;;4988316;28;20188;-80
2022/04/30 04:08:52;;;;;;;10.17;5.70;;;4.90;99.90;;;;;;4990586;28;20315;-80
2022/04/30 04:11:37;;;;;;;10.30;5.47;;;4.90;99.90;;;;;;4985038;28;20279;-79
2022/04/30 04:17:41;;;;;;;7.63;5.70;;;4.90;99.90;;;;;;4994442;28;20212;-79
2022/04/30 04:20:25;;;;;;;10.80;5.83;;;4.90;99.90;;;;;;4975616;28;20612;-78
2022/04/30 04:23:10;;;;;;;12.40;5.70;;;4.90;99.90;;;;;;4976986;28;20240;-80
2022/04/30 04:26:00;;;;;;;14.33;6.23;;;4.90;99.90;;;;;;4978116;28;20256;-80
2022/04/30 04:28:45;;;;;;;9.37;5.80;;;4.90;99.90;;;;;;4981840;28;20211;-80
2022/04/30 04:31:30;;;;;;;10.50;5.80;;;4.90;99.90;;;;;;4982199;28;20236;-81
2022/04/30 04:34:14;;;;;;;9.77;5.50;;;4.90;99.90;;;;;;5003212;28;20259;-79
2022/04/30 04:36:58;;;;;;;11.97;5.73;;;4.90;99.90;;;;;;4977976;28;20263;-80
2022/04/30 04:39:42;;;;;;;9.63;6.00;;;4.90;99.90;;;;;;4983821;28;20187;-79
2022/04/30 04:42:27;;;;;;;8.53;5.70;;;4.90;99.90;;;;;;4982931;28;20188;-79
2022/04/30 04:45:12;;;;;;;9.47;5.97;;;4.90;99.90;;;;;;4988321;28;20286;-79
2022/04/30 04:47:57;;;;;;;9.00;5.67;;;4.90;99.90;;;;;;4983737;28;20187;-80
2022/04/30 04:50:43;;;;;;;10.10;5.87;;;4.90;99.90;;;;;;4988394;28;20235;-80
2022/04/30 04:53:28;;;;;;;9.23;6.00;;;4.90;99.90;;;;;;4982785;28;20199;-79
2022/04/30 04:56:13;;;;;;;9.07;5.97;;;4.90;99.90;;;;;;4985358;28;20205;-80
2022/04/30 04:58:58;;;;;;;9.67;6.00;;;5.00;99.90;;;;;;4986222;28;20188;-80
2022/04/30 05:01:43;;;;;;;8.87;6.43;;;5.00;99.90;;;;;;4985869;28;20242;-80
2022/04/30 05:04:27;;;;;;;7.53;6.20;;;5.00;99.90;;;;;;4977710;28;20242;-79
2022/04/30 05:07:12;;;;;;;10.50;5.83;;;5.00;99.90;;;;;;4978783;28;20205;-79
2022/04/30 05:09:57;;;;;;;10.07;6.83;;;5.00;99.90;;;;;;4981253;28;20254;-79
2022/04/30 05:12:43;;;;;;;10.87;6.03;;;5.10;99.90;;;;;;4979168;28;20196;-80
2022/04/30 05:15:27;;;;;;;17.97;7.37;;;5.10;99.90;;;;;;4985175;28;20676;-79
2022/04/30 05:18:12;;;;;;;9.10;6.37;;;5.10;99.90;;;;;;4979158;28;20318;-80
2022/04/30 05:21:00;;;;;;;10.30;6.97;;;5.20;99.90;;;;;;4980636;28;20224;-79
2022/04/30 05:23:44;;;;;;;12.00;6.53;;;5.20;99.90;;;;;;4982339;28;20203;-80
2022/04/30 05:26:28;;;;;;;11.73;6.70;;;5.20;99.90;;;;;;4982808;28;20211;-79
2022/04/30 05:29:14;;;;;;;12.83;7.17;;;5.20;99.90;;;;;;4986158;28;20287;-80
2022/04/30 05:31:58;;;;;;;11.20;6.60;;;5.30;99.90;;;;;;4979595;28;20275;-79
2022/04/30 05:34:42;;;;;;;14.40;7.37;;;5.30;99.90;;;;;;4982225;28;20255;-79
2022/04/30 05:37:27;;;;;;;11.47;6.67;;;5.40;99.90;;;;;;4986112;28;20215;-80
2022/04/30 05:40:11;;;;;;;13.13;7.73;;;5.40;99.90;;;;;;4981292;28;20232;-79
2022/04/30 05:42:56;;;;;;;11.63;7.00;;;5.40;99.90;;;;;;4983189;28;20236;-79
2022/04/30 05:45:40;;;;;;;11.20;7.70;;;5.50;99.90;;;;;;4983470;28;20227;-79
2022/04/30 05:48:24;;;;;;;10.50;7.07;;;5.50;99.90;;;;;;4988575;28;20184;-80
2022/04/30 05:51:08;;;;;;;16.23;10.07;;;5.60;99.90;;;;;;4986681;28;20425;-80
2022/04/30 05:53:53;;;;;;;13.77;8.00;;;5.70;99.90;;;;;;4986603;28;20196;-80
2022/04/30 05:56:38;;;;;;;12.27;7.57;;;5.70;99.90;;;;;;4985323;28;20213;-80
2022/04/30 05:59:22;;;;;;;10.63;7.43;;;5.80;99.90;;;;;;4984176;28;20189;-80
2022/04/30 06:02:09;;;;;;;15.77;8.13;;;5.90;99.90;;;;;;4984338;28;20217;-80
2022/04/30 06:04:54;;;;;;;15.83;7.70;;;6.00;99.90;;;;;;4999327;28;20233;-80
2022/04/30 06:07:38;;;;;;;14.03;7.60;;;6.10;99.90;;;;;;4986004;28;20185;-80
2022/04/30 06:10:23;;;;;;;13.70;7.53;;;6.20;99.90;;;;;;4976265;28;20232;-79
2022/04/30 06:13:07;;;;;;;13.73;7.40;;;6.30;99.90;;;;;;4978448;28;20193;-79
2022/04/30 06:15:52;;;;;;;13.30;7.53;;;6.50;99.90;;;;;;4982978;28;20193;-80
2022/04/30 06:18:36;;;;;;;15.60;7.37;;;6.60;99.90;;;;;;4983196;28;20201;-80
2022/04/30 06:21:22;;;;;;;15.83;8.43;;;6.60;99.90;;;;;;4986814;28;20212;-79
2022/04/30 06:24:07;;;;;;;14.00;8.33;;;6.70;99.90;;;;;;4996692;28;20254;-79
2022/04/30 06:26:51;;;;;;;12.53;7.30;;;6.90;99.90;;;;;;4983783;28;20196;-80
2022/04/30 06:29:35;;;;;;;12.03;7.50;;;7.00;99.90;;;;;;4974909;28;20236;-80
2022/04/30 06:32:19;;;;;;;11.83;7.87;;;7.10;99.90;;;;;;4978814;28;20232;-79
2022/04/30 06:35:08;;;;;;;13.67;7.60;;;7.20;99.90;;;;;;4979680;28;20330;-79
2022/04/30 06:37:53;;;;;;;11.93;8.40;;;7.30;99.90;;;;;;4978339;28;20221;-79
2022/04/30 06:40:38;;;;;;;17.27;7.57;;;7.40;99.90;;;;;;4977819;28;20254;-77
2022/04/30 06:43:22;;;;;;;12.77;7.20;;;7.50;99.90;;;;;;4966450;28;20190;-77
2022/04/30 06:46:06;;;;;;;9.83;7.13;;;7.60;99.90;;;;;;4989213;28;20206;-77
2022/04/30 06:48:50;;;;;;;11.30;7.20;;;7.70;99.90;;;;;;4988241;28;20293;-77
2022/04/30 06:51:35;;;;;;;10.60;7.40;;;7.70;99.90;;;;;;4981159;28;20228;-77
2022/04/30 06:57:23;;;;;;;14.50;7.90;;;7.70;99.90;;;;;;4989866;28;20255;-77
2022/04/30 07:01:24;;;;;;;11.93;6.80;;;7.80;99.90;;;;;;4978290;28;20264;-78
2022/04/30 07:03:12;;;;;;;12.67;6.80;;;7.80;99.90;;;;;;4974824;28;20248;-76
2022/04/30 07:06:04;;;;;;;10.00;6.83;;;8.00;99.90;;;;;;4971391;28;20177;-76
2022/04/30 07:08:48;;;;;;;13.50;7.10;;;8.10;99.90;;;;;;4975027;28;20206;-76
2022/04/30 07:11:33;;;;;;;11.83;5.80;;;8.20;99.90;;;;;;4988966;28;20225;-78
2022/04/30 07:14:17;;;;;;;10.37;6.03;;;8.40;99.90;;;;;;4978512;28;20313;-78
2022/04/30 07:17:04;;;;;;;11.73;5.93;;;8.40;99.90;;;;;;4964772;28;20270;-76
2022/04/30 07:19:48;;;;;;;10.70;5.90;;;8.40;99.90;;;;;;4977714;28;20228;-76
2022/04/30 07:22:32;;;;;;;9.73;5.83;;;8.50;99.90;;;;;;4977910;28;20192;-76
2022/04/30 07:25:16;;;;;;;10.60;6.07;;;8.60;99.90;;;;;;4970569;28;20205;-76
2022/04/30 07:28:00;;;;;;;12.23;6.70;;;8.70;99.90;;;;;;4966582;28;20703;-78
2022/04/30 07:30:44;;;;;;;14.57;6.17;;;8.70;99.90;;;;;;4990170;28;20228;-76
2022/04/30 07:33:29;;;;;;;8.73;5.47;;;8.80;99.90;;;;;;4979087;28;20201;-77
2022/04/30 07:36:13;;;;;;;13.00;6.07;;;8.80;99.90;;;;;;4962635;28;20201;-76
2022/04/30 07:38:58;;;;;;;11.67;5.80;;;8.80;99.90;;;;;;4973493;28;20196;-76
2022/04/30 07:41:42;;;;;;;8.47;5.73;;;8.90;99.90;;;;;;4979668;28;20253;-78
2022/04/30 07:44:29;;;;;;;9.93;6.03;;;8.90;99.90;;;;;;4978767;28;20217;-77
2022/04/30 07:47:14;;;;;;;11.40;5.17;;;8.90;99.90;;;;;;4969492;28;20276;-78
2022/04/30 07:49:58;;;;;;;7.37;4.90;;;8.90;99.90;;;;;;4991173;28;20188;-77
2022/04/30 07:52:42;;;;;;;10.33;5.43;;;8.90;99.90;;;;;;4967717;28;20204;-77
2022/04/30 07:55:28;;;;;;;7.70;4.50;;;9.00;99.90;;;;;;4969647;28;20224;-77
2022/04/30 07:58:12;;;;;;;7.87;5.33;;;9.00;99.90;;;;;;4970443;28;20189;-77
2022/04/30 08:01:00;;;;;;;7.20;4.93;;;9.10;99.90;;;;;;4968060;28;20239;-77
2022/04/30 08:03:45;;;;;;;12.43;5.03;;;9.20;99.90;;;;;;4977055;28;20249;-78
2022/04/30 08:06:29;;;;;;;5.97;4.80;;;9.40;99.90;;;;;;4979046;28;20184;-77
2022/04/30 08:09:13;;;;;;;6.20;4.67;;;9.40;99.90;;;;;;4964200;28;20192;-77
2022/04/30 08:11:57;;;;;;;9.27;4.50;;;9.50;99.90;;;;;;4982482;28;20224;-78
2022/04/30 08:14:41;;;;;;;8.53;5.27;;;9.50;99.90;;;;;;4993746;28;20197;-77
2022/04/30 08:17:27;;;;;;;6.93;4.50;;;9.60;99.90;;;;;;4965533;28;20208;-77
2022/04/30 08:20:11;;;;;;;11.50;5.07;;;9.70;99.90;;;;;;4988775;28;20220;-78
2022/04/30 08:22:55;;;;;;;7.17;4.60;;;9.70;99.90;;;;;;4990442;28;20196;-78
2022/04/30 08:25:39;;;;;;;9.23;4.30;;;9.70;99.90;;;;;;4981067;28;20177;-78
2022/04/30 08:28:24;;;;;;;9.90;4.57;;;9.70;99.90;;;;;;4981496;28;20216;-78
2022/04/30 08:31:08;;;;;;;12.23;4.73;;;9.70;99.90;;;;;;4982499;28;20227;-78
2022/04/30 08:33:53;;;;;;;7.43;4.10;;;9.80;99.90;;;;;;4981652;28;20235;-78
2022/04/30 08:36:37;;;;;;;7.60;3.70;;;9.80;99.90;;;;;;4963630;28;20185;-78
2022/04/30 08:39:21;;;;;;;7.23;3.70;;;9.90;99.90;;;;;;4963531;28;20318;-78
2022/04/30 08:42:08;;;;;;;5.67;3.53;;;9.90;99.90;;;;;;4968763;28;20215;-77
2022/04/30 08:44:53;;;;;;;8.40;3.90;;;9.90;99.90;;;;;;4977202;28;20750;-77
2022/04/30 08:47:41;;;;;;;6.87;3.40;;;10.00;99.90;;;;;;4987037;28;20251;-78
2022/04/30 08:50:26;;;;;;;9.73;3.77;;;10.10;99.90;;;;;;4971139;28;20220;-77
2022/04/30 08:53:11;;;;;;;5.73;3.67;;;10.20;99.90;;;;;;4974752;28;20192;-77
2022/04/30 08:55:55;;;;;;;5.93;3.63;;;10.30;99.90;;;;;;4973884;28;20184;-77
2022/04/30 08:58:40;;;;;;;8.60;3.90;;;10.40;99.90;;;;;;4977851;28;20199;-77
2022/04/30 09:01:24;;;;;;;8.77;3.70;;;10.50;99.90;;;;;;4966716;28;20232;-77
2022/04/30 09:04:08;;;;;;;7.07;3.70;;;10.50;99.90;;;;;;4992851;28;20286;-78
2022/04/30 09:06:58;;;;;;;4.73;3.27;;;10.50;99.90;;;;;;4975912;28;20192;-78
2022/04/30 09:09:43;;;;;;;8.73;3.80;;;10.50;99.90;;;;;;4974043;28;20712;-78
2022/04/30 09:12:29;;;;;;;5.17;3.80;;;10.60;99.90;;;;;;4974947;28;20207;-78
2022/04/30 09:15:15;;;;;;;7.67;4.10;;;10.70;99.90;;;;;;4976283;28;20204;-78
2022/04/30 09:18:01;;;;;;;5.57;4.40;;;10.70;99.90;;;;;;4985251;28;20209;-78
2022/04/30 09:20:47;;;;;;;8.57;4.40;;;10.80;99.90;;;;;;4990814;28;20236;-77
2022/04/30 09:23:32;;;;;;;5.60;3.80;;;10.80;99.90;;;;;;4975870;28;20240;-78
2022/04/30 09:26:16;;;;;;;10.77;3.50;;;10.80;99.90;;;;;;4972259;28;20250;-78
2022/04/30 09:29:02;;;;;;;6.23;4.70;;;10.80;99.90;;;;;;4970633;28;20284;-78
2022/04/30 09:31:53;;;;;;;7.23;3.60;;;10.90;99.90;;;;;;4973770;28;20740;-78
2022/04/30 09:37:46;;;;;;;4.27;3.27;;;11.10;99.90;;;;;;4989338;28;20197;-78
2022/04/30 09:40:31;;;;;;;7.07;2.90;;;11.30;99.90;;;;;;4983321;28;20260;-78
2022/04/30 09:43:16;;;;;;;4.93;2.83;;;11.30;99.90;;;;;;4982835;28;20196;-78
2022/04/30 09:46:03;;;;;;;3.30;2.63;;;11.30;99.90;;;;;;4980233;28;20251;-78
2022/04/30 09:54:55;;;;;;;4.17;2.70;;;11.50;99.90;;;;;;4995872;28;20192;-79
2022/04/30 09:57:41;;;;;;;4.67;2.77;;;11.60;99.90;;;;;;4976636;28;20193;-78
2022/04/30 10:00:26;;;;;;;6.87;3.00;;;11.60;99.90;;;;;;4974360;28;20217;-78
2022/04/30 10:03:11;;;;;;;6.00;3.33;;;11.60;99.90;;;;;;4968472;28;20197;-78
2022/04/30 10:06:00;;;;;;;5.03;3.10;;;11.70;99.90;;;;;;4973042;28;20721;-78
2022/04/30 10:08:46;;;;;;;7.73;3.30;;;11.80;99.90;;;;;;4973633;28;20185;-78
2022/04/30 10:11:39;;;;;;;5.47;3.13;;;11.80;99.90;;;;;;4994023;28;20232;-78
2022/04/30 10:14:51;;;;;;;4.07;2.43;;;11.90;99.90;;;;;;4981389;28;20189;-78
2022/04/30 10:17:40;;;;;;;4.67;2.67;;;12.00;99.90;;;;;;4983851;28;20207;-78
2022/04/30 10:20:34;;;;;;;6.07;2.93;;;12.10;99.90;;;;;;4985372;28;20216;-78
2022/04/30 10:23:18;;;;;;;6.33;3.17;;;12.20;99.90;;;;;;4991631;28;20193;-77
2022/04/30 10:26:07;;;;;;;5.00;3.00;;;12.20;99.90;;;;;;4993322;28;20243;-78
2022/04/30 10:29:12;;;;;;;4.80;3.40;;;12.20;99.90;;;;;;4984590;28;20219;-79
2022/04/30 10:31:56;;;;;;;5.50;2.80;;;12.10;99.90;;;;;;4974921;28;20229;-78
2022/04/30 10:34:51;;;;;;;11.43;3.03;;;12.20;99.90;;;;;;4978382;28;20184;-78
2022/04/30 10:37:38;;;;;;;7.37;3.17;;;12.20;99.90;;;;;;4966971;28;20173;-77
2022/04/30 10:40:23;;;;;;;4.63;2.60;;;12.20;99.90;;;;;;4981462;28;20213;-77
2022/04/30 10:43:31;;;;;;;5.40;2.90;;;12.20;99.90;;;;;;4981343;28;20200;-77
2022/04/30 10:46:21;;;;;;;5.00;2.80;;;12.30;99.90;;;;;;4983071;28;20200;-79
2022/04/30 10:49:06;;;;;;;3.70;2.70;;;12.40;99.90;;;;;;4980953;28;20192;-78
2022/04/30 10:51:54;;;;;;;3.33;2.87;;;12.50;99.90;;;;;;4970304;28;20315;-78
2022/04/30 10:54:42;;;;;;;5.10;3.20;;;12.50;99.90;;;;;;4983167;28;20269;-78
2022/04/30 10:57:27;;;;;;;3.70;2.67;;;12.50;99.90;;;;;;4985629;28;20217;-78
2022/04/30 11:00:12;;;;;;;3.00;2.60;;;12.50;99.90;;;;;;4986011;28;20216;-80
2022/04/30 11:03:10;;;;;;;3.70;2.37;;;12.60;99.90;;;;;;4982744;28;20241;-77
2022/04/30 11:05:56;;;;;;;3.03;2.77;;;12.60;99.90;;;;;;4977775;28;20248;-77
2022/04/30 11:08:40;;;;;;;5.70;2.60;;;12.60;99.90;;;;;;4971610;28;20197;-78
2022/04/30 11:11:24;;;;;;;4.90;2.43;;;12.70;99.90;;;;;;4981405;28;20276;-79
2022/04/30 11:14:10;;;;;;;3.23;2.13;;;12.80;99.90;;;;;;4969775;28;20193;-77
2022/04/30 11:16:55;;;;;;;7.87;3.83;;;12.90;99.90;;;;;;4991154;28;20216;-77
2022/04/30 11:19:41;;;;;;;4.53;2.50;;;12.90;99.90;;;;;;4985644;28;20253;-78
2022/04/30 11:22:25;;;;;;;4.80;2.70;;;12.90;99.90;;;;;;4976042;28;20196;-78
2022/04/30 11:25:09;;;;;;;2.73;2.33;;;13.00;99.90;;;;;;4983342;28;20245;-78
2022/04/30 11:27:57;;;;;;;3.53;2.20;;;13.10;99.90;;;;;;4982933;28;20228;-79
2022/04/30 11:30:44;;;;;;;3.80;3.10;;;13.10;99.90;;;;;;4981060;28;20736;-78
2022/04/30 11:33:33;;;;;;;3.83;2.53;;;13.20;99.90;;;;;;4987400;28;20217;-77
2022/04/30 11:36:18;;;;;;;2.87;2.23;;;13.20;99.90;;;;;;4972054;28;20276;-77
2022/04/30 11:39:02;;;;;;;5.63;2.67;;;13.20;99.90;;;;;;4979941;28;20239;-77
2022/04/30 11:41:52;;;;;;;4.27;2.20;;;13.20;99.90;;;;;;4979698;28;20217;-77
2022/04/30 11:44:36;;;;;;;5.67;2.60;;;13.20;99.90;;;;;;4981225;28;20196;-77
2022/04/30 11:47:21;;;;;;;3.00;2.30;;;13.20;99.90;;;;;;4982793;28;20205;-78
2022/04/30 11:50:09;;;;;;;5.57;2.20;;;13.20;99.90;;;;;;4977399;28;20209;-79
2022/04/30 11:52:54;;;;;;;4.93;2.10;;;13.20;99.90;;;;;;4981641;28;20608;-78
2022/04/30 11:55:39;;;;;;;6.13;2.13;;;13.20;99.90;;;;;;4974845;28;20194;-77
2022/04/30 11:58:25;;;;;;;2.87;2.30;;;13.20;99.90;;;;;;4974100;28;20222;-78
2022/04/30 12:01:26;;;;;;;2.87;2.17;;;13.20;99.90;;;;;;4984778;28;20591;-79
2022/04/30 12:04:16;;;;;;;2.87;2.17;;;13.30;99.90;;;;;;4969931;28;20200;-79
2022/04/30 12:07:03;;;;;;;4.40;2.27;;;13.30;99.90;;;;;;4972740;28;20189;-78
2022/04/30 12:09:50;;;;;;;5.77;2.10;;;13.40;99.90;;;;;;4982204;28;20923;-78
2022/04/30 12:12:36;;;;;;;3.63;2.10;;;13.30;99.90;;;;;;4973486;28;20406;-78
2022/04/30 12:15:26;;;;;;;4.20;2.60;;;13.30;99.90;;;;;;4967761;28;20317;-77
2022/04/30 12:27:28;;;;;;;1.90;1.60;;;13.50;99.90;;;;;;4991688;28;20268;-78
2022/04/30 12:30:15;;;;;;;2.40;1.97;;;13.50;99.90;;;;;;4982310;28;20224;-78
2022/04/30 12:33:01;;;;;;;7.33;2.13;;;13.50;99.90;;;;;;4971726;28;20197;-78
2022/04/30 12:35:53;;;;;;;2.30;1.80;;;13.60;99.90;;;;;;4970916;28;20279;-78
2022/04/30 12:38:37;;;;;;;4.27;1.83;;;13.60;99.90;;;;;;4973128;28;20218;-78
2022/04/30 12:41:23;;;;;;;3.17;1.83;;;13.50;99.90;;;;;;4976567;28;20236;-78
2022/04/30 12:44:07;;;;;;;6.27;2.23;;;13.60;99.90;;;;;;4984292;28;20197;-79
2022/04/30 12:46:52;;;;;;;2.90;1.70;;;13.60;99.90;;;;;;4975514;28;20196;-78
2022/04/30 12:49:36;;;;;;;2.37;1.90;;;13.60;99.90;;;;;;4975429;28;20319;-77
2022/04/30 12:52:20;;;;;;;2.53;1.90;;;13.70;99.90;;;;;;4983330;28;20203;-79
2022/04/30 12:55:05;;;;;;;2.00;1.47;;;13.60;99.90;;;;;;4970599;28;20190;-78
2022/04/30 12:57:49;;;;;;;3.10;1.47;;;13.70;99.90;;;;;;4973259;28;20190;-79
2022/04/30 13:00:34;;;;;;;3.67;1.40;;;13.80;99.90;;;;;;4986210;28;20251;-78
2022/04/30 13:03:18;;;;;;;2.70;1.40;;;13.80;99.90;;;;;;4996825;28;20199;-79
2022/04/30 13:06:03;;;;;;;4.13;1.80;;;13.80;99.90;;;;;;4967816;28;20198;-80
2022/04/30 13:14:54;;;;;;;1.67;1.57;;;13.90;99.90;;;;;;4980094;28;20185;-77
2022/04/30 13:17:38;;;;;;;1.87;1.73;;;14.00;99.90;;;;;;4980054;28;20213;-77
2022/04/30 13:20:22;;;;;;;2.80;1.40;;;14.00;99.90;;;;;;4962739;28;20349;-77
2022/04/30 13:23:06;;;;;;;2.67;1.60;;;14.10;99.90;;;;;;4981058;28;20184;-78
2022/04/30 13:25:50;;;;;;;3.73;1.67;;;14.10;99.90;;;;;;4972423;28;20193;-77
2022/04/30 13:28:35;;;;;;;6.30;1.60;;;14.00;99.90;;;;;;4979840;28;20236;-77
2022/04/30 13:31:19;;;;;;;5.27;1.60;;;14.00;99.90;;;;;;4985842;28;20256;-77
2022/04/30 13:34:03;;;;;;;3.00;1.93;;;14.00;99.90;;;;;;4984583;28;20621;-77
2022/04/30 13:36:48;;;;;;;3.00;1.63;;;14.00;99.90;;;;;;4994998;28;20216;-78
2022/04/30 13:39:32;;;;;;;2.13;1.57;;;14.10;99.90;;;;;;4982074;28;20192;-78
2022/04/30 13:42:17;;;;;;;3.37;1.57;;;14.10;99.90;;;;;;4978901;28;20200;-78
2022/04/30 13:45:02;;;;;;;2.10;1.60;;;14.10;99.90;;;;;;4974145;28;20270;-78
2022/04/30 13:47:50;;;;;;;2.37;1.67;;;14.10;99.90;;;;;;4970664;28;20200;-77
2022/04/30 13:50:35;;;;;;;2.37;1.60;;;14.10;99.90;;;;;;4981773;28;20232;-78
2022/04/30 13:53:20;;;;;;;3.23;1.57;;;14.10;99.90;;;;;;4971221;28;20224;-77
2022/04/30 13:56:05;;;;;;;3.83;2.00;;;14.20;99.90;;;;;;4974355;28;20193;-78
2022/04/30 13:58:50;;;;;;;2.20;1.40;;;14.10;99.90;;;;;;4978334;28;20185;-78
2022/04/30 14:01:34;;;;;;;3.20;1.50;;;14.10;99.90;;;;;;4995513;28;20245;-77
2022/04/30 14:04:19;;;;;;;1.80;1.60;;;14.10;99.90;;;;;;4980357;28;20201;-77
2022/04/30 14:07:04;;;;;;;2.63;1.70;;;14.20;99.90;;;;;;4976699;28;20216;-78
2022/04/30 14:09:48;;;;;;;1.97;1.40;;;14.20;99.90;;;;;;4978716;28;20240;-77
2022/04/30 14:12:33;;;;;;;2.50;1.47;;;14.20;99.90;;;;;;4967393;28;20220;-78
2022/04/30 14:15:17;;;;;;;3.37;1.73;;;14.20;99.90;;;;;;4972293;28;20672;-78
2022/04/30 14:18:19;;;;;;;4.80;1.40;;;14.20;99.90;;;;;;4971854;28;20228;-77
2022/04/30 14:21:06;;;;;;;4.17;1.60;;;14.30;99.90;;;;;;4977593;28;20265;-78
2022/04/30 14:23:50;;;;;;;3.10;2.23;;;14.20;99.90;;;;;;4977882;28;20310;-77
2022/04/30 14:26:37;;;;;;;2.80;1.60;;;14.30;99.90;;;;;;4981605;28;20204;-77
2022/04/30 14:29:21;;;;;;;1.87;1.23;;;14.20;99.90;;;;;;4963683;28;20252;-77
2022/04/30 14:32:05;;;;;;;2.17;1.53;;;14.20;99.90;;;;;;4997148;28;20244;-77
2022/04/30 14:34:49;;;;;;;2.20;1.33;;;14.30;99.90;;;;;;4980678;28;20200;-77
2022/04/30 14:37:35;;;;;;;2.07;1.70;;;14.30;99.90;;;;;;4981093;28;20193;-78
2022/04/30 14:40:20;;;;;;;2.63;1.50;;;14.40;99.90;;;;;;4979688;28;20232;-77
2022/04/30 14:43:08;;;;;;;1.70;1.30;;;14.30;99.90;;;;;;4976300;28;20186;-77
2022/04/30 14:45:53;;;;;;;2.57;1.67;;;14.40;99.90;;;;;;4979683;28;20204;-78
2022/04/30 14:48:37;;;;;;;3.57;1.60;;;14.40;99.90;;;;;;4981987;28;20216;-78
2022/04/30 14:51:22;;;;;;;2.73;1.50;;;14.50;99.90;;;;;;4971700;28;20354;-78
2022/04/30 14:54:06;;;;;;;1.37;1.27;;;14.40;99.90;;;;;;4988534;28;20220;-78
2022/04/30 14:56:50;;;;;;;1.80;1.60;;;14.40;99.90;;;;;;4963013;28;20228;-78
2022/04/30 14:59:35;;;;;;;3.47;1.50;;;14.40;99.90;;;;;;4963323;28;20209;-78
2022/04/30 15:02:19;;;;;;;1.50;1.40;;;14.40;99.90;;;;;;4964986;28;20173;-78
2022/04/30 15:05:04;;;;;;;2.07;1.67;;;14.40;99.90;;;;;;4972769;28;20260;-78
2022/04/30 15:07:48;;;;;;;2.77;1.80;;;14.40;99.90;;;;;;4967017;28;20217;-78
2022/04/30 15:10:32;;;;;;;1.17;1.07;;;14.40;99.90;;;;;;4988031;28;20268;-78